Aviation Digital Data Service (ADDS)

Output produced by METARs form (2324 UTC 18 December 2018)
found at http://aviationweather.gov/metar/data/
 
METAR text: EDJA 182120Z VRB01KT CAVOK M04/M04 Q1019
Conditions at: EDJA (MEMMINGEN ALLGAU, DE) observed 2120 UTC 18 December 2018
Temperature: -4.0°C (25°F)
Dewpoint: -4.0°C (25°F) [RH = 100%]
Pressure (altimeter): 30.09 inches Hg (1019.0 mb)
Winds: variable direction winds at 1 MPH (1 knots; 0.5 m/s)
Visibility: 6 or more miles (10+ km)
Ceiling: ceiling and visibility are OK
Clouds: unknown
Weather: no significant weather observed at this time

Forecast for: AMD
Text: TAF AMD EDJA 182003Z 1820/1903 VRB02KT CAVOK
Forecast period: 2000 UTC 18 December 2018 to 0300 UTC 19 December 2018
Forecast type: FROM: standard forecast or significant change
Winds: variable direction winds at 2 MPH (2 knots; 1.0 m/s)
Visibility: 6 or more miles 10+ km)
Ceiling: unknown
Clouds: missing
Weather: NSW  (no significant weather)
Text: PROB40
Forecast period: 2100 UTC 18 December 2018 to 0300 UTC 19 December 2018
Forecast type: TEMPORARY: The following changes expected for less than half the time period
Visibility: 0.31 miles (0.50 km)
Ceiling: indefinite ceiling with vertical visibility of 100 feet AGL
Clouds: obscured sky
Weather: FZFG  (freezing fog)